createdAt,value
2019-03-13T00:01:45.475Z,7.70
2019-03-13T00:04:15.337Z,7.70
2019-03-13T00:06:45.262Z,7.70
2019-03-13T00:09:15.185Z,7.70
2019-03-13T00:11:44.956Z,7.70
2019-03-13T00:14:14.731Z,7.70
2019-03-13T00:16:44.496Z,7.70
2019-03-13T00:19:14.301Z,7.70
2019-03-13T00:21:44.005Z,7.70
2019-03-13T00:24:14.881Z,7.70
2019-03-13T00:26:44.732Z,7.80
2019-03-13T00:29:14.428Z,7.80
2019-03-13T00:31:44.211Z,7.80
2019-03-13T00:34:13.993Z,7.80
2019-03-13T00:36:43.703Z,7.80
2019-03-13T00:39:13.409Z,7.80
2019-03-13T00:41:43.107Z,7.80
2019-03-13T00:44:12.901Z,7.80
2019-03-13T00:46:43.573Z,7.80
2019-03-13T00:49:13.413Z,7.80
2019-03-13T00:51:43.195Z,7.80
2019-03-13T00:54:12.965Z,7.80
2019-03-13T00:56:42.757Z,7.90
2019-03-13T00:59:14.403Z,7.90
2019-03-13T01:02:12.617Z,7.90
2019-03-13T01:04:50.613Z,7.90
2019-03-13T01:07:20.412Z,7.90
2019-03-13T01:09:50.255Z,7.90
2019-03-13T01:12:20.156Z,7.90
2019-03-13T01:14:49.991Z,7.90
2019-03-13T01:17:19.784Z,7.90
2019-03-13T01:19:49.490Z,7.90
2019-03-13T01:22:19.252Z,7.90
2019-03-13T01:24:48.945Z,7.90
2019-03-13T01:27:18.812Z,7.90
2019-03-13T01:29:48.504Z,7.90
2019-03-13T01:32:46.418Z,7.80
2019-03-13T01:35:37.983Z,7.80
2019-03-13T01:38:07.677Z,7.80
2019-03-13T01:40:37.469Z,7.70
2019-03-13T01:43:07.232Z,7.70
2019-03-13T01:45:37.079Z,7.70
2019-03-13T01:48:06.899Z,7.70
2019-03-13T01:50:36.576Z,7.60
2019-03-13T01:53:06.300Z,7.60
2019-03-13T01:55:36.070Z,7.60
2019-03-13T01:58:05.853Z,7.60
2019-03-13T02:00:35.697Z,7.60
2019-03-13T02:03:05.568Z,7.60
2019-03-13T02:05:35.440Z,7.60
2019-03-13T02:08:05.228Z,7.60
2019-03-13T02:10:35.001Z,7.60
2019-03-13T02:13:04.931Z,7.60
2019-03-13T02:15:34.743Z,7.60
2019-03-13T02:18:04.505Z,7.60
2019-03-13T02:20:36.707Z,7.60
2019-03-13T02:23:06.981Z,7.60
2019-03-13T02:25:37.629Z,7.60
2019-03-13T02:28:07.318Z,7.60
2019-03-13T02:30:37.060Z,7.60
2019-03-13T02:33:06.746Z,7.60
2019-03-13T02:35:36.442Z,7.60
2019-03-13T02:38:06.186Z,7.60
2019-03-13T02:40:35.864Z,7.60
2019-03-13T02:43:05.550Z,7.60
2019-03-13T02:45:35.238Z,7.70
2019-03-13T02:48:05.006Z,7.70
2019-03-13T02:50:34.674Z,7.70
2019-03-13T02:53:04.439Z,7.70
2019-03-13T02:55:35.219Z,7.80
2019-03-13T02:58:05.077Z,7.80
2019-03-13T03:00:59.694Z,7.80
2019-03-13T03:03:32.328Z,7.80
2019-03-13T03:06:02.022Z,7.80
2019-03-13T03:08:31.693Z,7.80
2019-03-13T03:11:01.377Z,7.80
2019-03-13T03:13:31.068Z,7.90
2019-03-13T03:16:00.733Z,7.90
2019-03-13T03:18:30.503Z,7.90
2019-03-13T03:21:00.160Z,7.90
2019-03-13T03:23:29.926Z,8.00
2019-03-13T03:25:59.636Z,8.00
2019-03-13T03:28:29.315Z,8.00
2019-03-13T03:30:59.094Z,8.00
2019-03-13T03:33:28.826Z,8.10
2019-03-13T03:35:58.509Z,8.10
2019-03-13T03:38:28.315Z,8.10
2019-03-13T03:40:58.120Z,8.20
2019-03-13T03:43:39.488Z,8.20
2019-03-13T03:45:59.179Z,8.10
2019-03-13T03:48:28.875Z,8.20
2019-03-13T03:50:58.661Z,8.20
2019-03-13T03:53:28.335Z,8.20
2019-03-13T03:55:58.159Z,8.30
2019-03-13T03:58:29.558Z,8.30
2019-03-13T04:00:59.300Z,8.30
2019-03-13T04:03:29.172Z,8.30
2019-03-13T04:05:59.304Z,8.30
2019-03-13T04:08:29.084Z,8.30
2019-03-13T04:10:58.756Z,8.30
2019-03-13T04:13:28.436Z,8.30
2019-03-13T04:15:58.123Z,8.30
2019-03-13T04:18:27.793Z,8.30
2019-03-13T04:20:58.444Z,8.40
2019-03-13T04:23:28.117Z,8.40
2019-03-13T04:25:58.053Z,8.40
2019-03-13T04:28:27.811Z,8.40
2019-03-13T04:30:57.496Z,8.40
2019-03-13T04:33:28.388Z,8.40
2019-03-13T04:35:58.357Z,8.40
2019-03-13T04:38:28.017Z,8.40
2019-03-13T04:40:57.711Z,8.40
2019-03-13T04:43:27.385Z,8.40
2019-03-13T04:45:57.060Z,8.40
2019-03-13T04:48:26.877Z,8.40
2019-03-13T04:50:56.567Z,8.40
2019-03-13T04:53:26.246Z,8.40
2019-03-13T04:55:56.119Z,8.40
2019-03-13T04:58:25.875Z,8.40
2019-03-13T05:00:55.716Z,8.40
2019-03-13T05:03:27.256Z,8.40
2019-03-13T05:06:20.509Z,8.40
2019-03-13T05:09:11.232Z,8.40
2019-03-13T05:11:40.939Z,8.40
2019-03-13T05:14:10.614Z,8.40
2019-03-13T05:16:40.389Z,8.40
2019-03-13T05:19:10.062Z,8.40
2019-03-13T05:21:39.853Z,8.50
2019-03-13T05:24:09.500Z,8.50
2019-03-13T05:26:39.200Z,8.50
2019-03-13T05:29:08.867Z,8.50
2019-03-13T05:31:38.565Z,8.50
2019-03-13T05:34:08.233Z,8.50
2019-03-13T05:36:37.912Z,8.50
2019-03-13T05:39:08.041Z,8.50
2019-03-13T05:41:38.200Z,8.50
2019-03-13T05:44:07.876Z,8.50
2019-03-13T05:46:37.569Z,8.50
2019-03-13T05:49:08.398Z,8.50
2019-03-13T05:51:38.197Z,8.50
2019-03-13T05:54:07.872Z,8.50
2019-03-13T05:56:40.621Z,8.60
2019-03-13T05:59:09.028Z,8.60
2019-03-13T06:01:38.737Z,8.60
2019-03-13T06:04:08.407Z,8.60
2019-03-13T06:06:38.114Z,8.60
2019-03-13T06:09:08.295Z,8.60
2019-03-13T06:11:37.997Z,8.60
2019-03-13T06:14:08.507Z,8.60
2019-03-13T06:16:38.220Z,8.60
2019-03-13T06:19:07.929Z,8.60
2019-03-13T06:21:37.636Z,8.60
2019-03-13T06:24:07.337Z,8.60
2019-03-13T06:26:37.093Z,8.60
2019-03-13T06:29:06.764Z,8.60
2019-03-13T06:31:36.548Z,8.60
2019-03-13T06:34:06.307Z,8.50
2019-03-13T06:36:36.019Z,8.50
2019-03-13T06:39:07.247Z,8.50
2019-03-13T06:41:36.961Z,8.50
2019-03-13T06:44:06.650Z,8.50
2019-03-13T06:46:36.345Z,8.50
2019-03-13T06:49:06.479Z,8.50
2019-03-13T06:51:36.273Z,8.50
2019-03-13T06:54:05.972Z,8.50
2019-03-13T06:56:35.685Z,8.50
2019-03-13T06:59:13.354Z,8.50
2019-03-13T07:02:01.426Z,8.50
2019-03-13T07:04:56.145Z,8.50
2019-03-13T07:07:48.380Z,8.50
2019-03-13T07:10:45.581Z,8.50
2019-03-13T07:13:23.994Z,8.50
2019-03-13T07:16:12.751Z,8.50
2019-03-13T07:18:48.177Z,8.50
2019-03-13T07:21:30.247Z,8.50
2019-03-13T07:24:31.350Z,8.50
2019-03-13T07:27:25.962Z,8.50
2019-03-13T07:30:14.740Z,8.50
2019-03-13T07:33:00.353Z,8.60
2019-03-13T07:35:53.380Z,8.60
2019-03-13T07:38:45.276Z,8.60
2019-03-13T07:41:39.080Z,8.60
2019-03-13T07:44:37.218Z,8.70
2019-03-13T07:47:29.424Z,8.70
2019-03-13T07:50:11.807Z,8.70
2019-03-13T07:52:59.245Z,8.80
2019-03-13T07:55:37.848Z,8.80
2019-03-13T07:58:25.464Z,8.80
2019-03-13T08:01:06.824Z,8.80
2019-03-13T08:03:58.420Z,8.90
2019-03-13T08:06:46.132Z,8.90
2019-03-13T08:09:33.935Z,9.00
2019-03-13T08:12:17.765Z,9.00
2019-03-13T08:14:57.416Z,9.00
2019-03-13T08:17:41.641Z,9.10
2019-03-13T08:20:30.609Z,9.10
2019-03-13T08:23:28.558Z,9.20
2019-03-13T08:26:18.567Z,9.20
2019-03-13T08:29:25.394Z,9.30
2019-03-13T08:32:12.841Z,9.30
2019-03-13T08:35:00.600Z,9.30
2019-03-13T08:37:58.665Z,9.30
2019-03-13T08:40:37.191Z,9.30
2019-03-13T08:43:19.268Z,9.30
2019-03-13T08:46:11.519Z,9.30
2019-03-13T08:48:58.655Z,9.30
2019-03-13T08:51:53.512Z,9.30
2019-03-13T08:54:48.141Z,9.30
2019-03-13T08:57:26.512Z,9.30
2019-03-13T09:00:08.728Z,9.40
2019-03-13T09:02:56.265Z,9.40
2019-03-13T09:05:40.915Z,9.40
2019-03-13T09:08:39.101Z,9.40
2019-03-13T09:11:18.627Z,9.40
2019-03-13T09:14:12.483Z,9.40
2019-03-13T09:16:56.052Z,9.50
2019-03-13T09:19:47.639Z,9.50
2019-03-13T09:22:35.061Z,9.50
2019-03-13T09:25:23.003Z,9.50
2019-03-13T09:28:17.652Z,9.60
2019-03-13T09:31:01.956Z,9.60
2019-03-13T09:33:47.022Z,9.60
2019-03-13T09:36:35.797Z,9.60
2019-03-13T09:39:28.552Z,9.70
2019-03-13T09:42:10.111Z,9.70
2019-03-13T09:45:01.690Z,9.80
2019-03-13T09:47:52.322Z,9.80
2019-03-13T09:50:27.155Z,9.80
2019-03-13T09:53:15.967Z,9.70
2019-03-13T09:55:55.950Z,9.70
2019-03-13T09:58:50.824Z,9.60
2019-03-13T10:01:37.657Z,9.60
2019-03-13T10:04:32.432Z,9.50
2019-03-13T10:07:20.800Z,9.50
2019-03-13T10:10:14.964Z,9.40
2019-03-13T10:13:16.079Z,9.30
2019-03-13T10:15:53.907Z,9.30
2019-03-13T10:18:57.739Z,9.20
2019-03-13T10:21:52.624Z,9.10
2019-03-13T10:24:40.146Z,9.20
2019-03-13T10:27:27.810Z,9.20
2019-03-13T10:30:06.443Z,9.20
2019-03-13T10:32:47.728Z,9.20
2019-03-13T10:35:35.368Z,9.20
2019-03-13T10:38:15.344Z,9.20
2019-03-13T10:41:07.015Z,9.30
2019-03-13T10:43:54.535Z,9.30
2019-03-13T10:46:37.174Z,9.30
2019-03-13T10:49:19.503Z,9.30
2019-03-13T10:52:05.902Z,9.40
2019-03-13T10:54:51.564Z,9.40
2019-03-13T10:57:52.696Z,9.40
2019-03-13T11:00:36.034Z,9.40
2019-03-13T11:03:28.234Z,9.50
2019-03-13T11:06:15.923Z,9.50
2019-03-13T11:08:56.473Z,9.60
2019-03-13T11:12:00.895Z,9.70
2019-03-13T11:14:48.428Z,9.70
2019-03-13T11:17:35.905Z,9.70
2019-03-13T11:20:22.429Z,9.80
2019-03-13T11:23:03.728Z,9.80
2019-03-13T11:25:52.472Z,9.80
2019-03-13T11:28:41.026Z,9.80
2019-03-13T11:31:42.044Z,9.80
2019-03-13T11:34:33.275Z,9.80
2019-03-13T11:37:29.485Z,9.80
2019-03-13T11:40:06.393Z,9.80
2019-03-13T11:43:02.643Z,9.80
2019-03-13T11:45:57.724Z,9.80
2019-03-13T11:48:35.726Z,9.90
2019-03-13T11:51:30.667Z,9.90
2019-03-13T11:54:16.527Z,9.90
2019-03-13T11:57:04.054Z,10.00
2019-03-13T11:59:56.857Z,10.00
2019-03-13T12:02:43.148Z,10.00
2019-03-13T12:05:23.315Z,10.00
2019-03-13T12:08:03.253Z,9.90
2019-03-13T12:10:51.026Z,9.90
2019-03-13T12:13:45.980Z,9.80
2019-03-13T12:16:34.744Z,9.80
2019-03-13T12:19:19.929Z,9.70
2019-03-13T12:22:01.583Z,9.60
2019-03-13T12:24:44.701Z,9.50
2019-03-13T12:27:21.793Z,9.50
2019-03-13T12:30:11.484Z,9.40
2019-03-13T12:32:54.903Z,9.40
2019-03-13T12:35:39.682Z,9.40
2019-03-13T12:38:47.192Z,9.30
2019-03-13T12:41:48.149Z,9.30
2019-03-13T12:44:24.259Z,9.30
2019-03-13T12:47:18.940Z,9.20
2019-03-13T12:50:10.846Z,9.20
2019-03-13T12:52:58.236Z,9.20
2019-03-13T12:55:47.096Z,9.10
2019-03-13T12:58:34.471Z,9.00
2019-03-13T13:01:41.591Z,9.00
2019-03-13T13:04:29.674Z,9.00
2019-03-13T13:07:11.379Z,8.90
2019-03-13T13:10:03.095Z,8.90
2019-03-13T13:12:54.208Z,8.90
2019-03-13T13:15:49.409Z,8.90
2019-03-13T13:18:30.599Z,8.90
2019-03-13T13:21:00.285Z,8.90
2019-03-13T13:23:31.107Z,8.90
2019-03-13T13:26:00.892Z,8.90
2019-03-13T13:28:30.719Z,8.90
2019-03-13T13:31:00.496Z,8.90
2019-03-13T13:33:30.165Z,8.90
2019-03-13T13:35:59.862Z,8.90
2019-03-13T13:38:29.604Z,8.90
2019-03-13T13:40:59.331Z,8.90
2019-03-13T13:43:29.011Z,8.90
2019-03-13T13:46:02.915Z,8.90
2019-03-13T13:48:32.577Z,8.90
2019-03-13T13:51:02.287Z,8.90
2019-03-13T13:53:31.962Z,8.90
2019-03-13T13:56:01.648Z,8.90
2019-03-13T13:58:31.328Z,8.90
2019-03-13T14:01:01.079Z,8.90
2019-03-13T14:03:30.767Z,8.90
2019-03-13T14:06:00.477Z,8.90
2019-03-13T14:08:30.242Z,8.90
2019-03-13T14:11:01.486Z,8.90
2019-03-13T14:13:31.166Z,8.90
2019-03-13T14:16:00.938Z,8.90
2019-03-13T14:18:30.718Z,8.90
2019-03-13T14:21:00.488Z,8.90
2019-03-13T14:23:30.194Z,8.90
2019-03-13T14:25:59.956Z,8.90
2019-03-13T14:28:29.661Z,9.00
2019-03-13T14:30:59.534Z,9.00
2019-03-13T14:33:29.299Z,9.10
2019-03-13T14:35:59.163Z,9.10
2019-03-13T14:38:28.899Z,9.10
2019-03-13T14:40:58.697Z,9.30
2019-03-13T14:43:28.545Z,9.30
2019-03-13T14:45:58.404Z,9.30
2019-03-13T14:48:28.119Z,9.40
2019-03-13T14:50:57.796Z,9.50
2019-03-13T14:53:27.710Z,9.50
2019-03-13T14:55:57.481Z,9.60
2019-03-13T14:58:27.360Z,9.70
2019-03-13T15:00:57.230Z,9.80
2019-03-13T15:03:26.922Z,9.90
2019-03-13T15:05:56.695Z,9.90
2019-03-13T15:08:26.381Z,10.00
2019-03-13T15:10:56.167Z,10.00
2019-03-13T15:13:26.910Z,10.00
2019-03-13T15:15:56.663Z,10.10
2019-03-13T15:18:26.369Z,10.10
2019-03-13T15:20:56.198Z,10.10
2019-03-13T15:23:26.106Z,10.20
2019-03-13T15:25:55.868Z,10.10
2019-03-13T15:28:25.586Z,10.10
2019-03-13T15:30:55.458Z,10.10
2019-03-13T15:33:25.165Z,10.00
2019-03-13T15:35:54.852Z,10.00
2019-03-13T15:38:24.564Z,10.00
2019-03-13T15:40:54.273Z,9.90
2019-03-13T15:43:24.029Z,9.90
2019-03-13T15:45:53.733Z,9.90
2019-03-13T15:48:23.410Z,9.90
2019-03-13T15:50:53.184Z,9.90
2019-03-13T15:53:22.919Z,9.90
2019-03-13T15:55:52.698Z,9.90
2019-03-13T15:58:22.445Z,9.80
2019-03-13T16:00:52.325Z,9.80
2019-03-13T16:03:22.127Z,9.80
2019-03-13T16:05:51.893Z,9.80
2019-03-13T16:08:21.577Z,9.80
2019-03-13T16:10:51.292Z,9.80
2019-03-13T16:13:20.984Z,9.80
2019-03-13T16:15:50.848Z,9.80
2019-03-13T16:18:20.527Z,9.80
2019-03-13T16:20:50.301Z,9.70
2019-03-13T16:23:19.994Z,9.70
2019-03-13T16:25:49.863Z,9.70
2019-03-13T16:28:19.557Z,9.70
2019-03-13T16:30:49.566Z,9.70
2019-03-13T16:33:19.254Z,9.70
2019-03-13T16:35:49.126Z,9.70
2019-03-13T16:38:18.958Z,9.70
2019-03-13T16:40:48.658Z,9.70
2019-03-13T16:43:18.768Z,9.80
2019-03-13T16:45:49.528Z,9.80
2019-03-13T16:48:19.365Z,9.80
2019-03-13T16:50:49.214Z,9.80
2019-03-13T16:53:18.889Z,9.80
2019-03-13T16:55:48.757Z,9.80
2019-03-13T16:58:18.437Z,9.80
2019-03-13T17:00:50.585Z,9.80
2019-03-13T17:03:20.025Z,9.80
2019-03-13T17:05:50.114Z,9.80
2019-03-13T17:08:19.914Z,9.80
2019-03-13T17:10:49.690Z,9.80
2019-03-13T17:13:19.393Z,9.80
2019-03-13T17:15:49.168Z,9.80
2019-03-13T17:18:18.932Z,9.80
2019-03-13T17:20:48.673Z,9.90
2019-03-13T17:23:18.513Z,9.90
2019-03-13T17:25:48.366Z,9.90
2019-03-13T17:28:18.453Z,9.90
2019-03-13T17:30:49.365Z,9.90
2019-03-13T17:33:19.140Z,9.80
2019-03-13T17:35:48.859Z,9.80
2019-03-13T17:38:18.548Z,9.80
2019-03-13T17:40:48.329Z,9.80
2019-03-13T17:43:18.112Z,9.80
2019-03-13T17:45:47.885Z,9.80
2019-03-13T17:48:19.868Z,9.70
2019-03-13T17:50:49.700Z,9.70
2019-03-13T17:53:19.416Z,9.70
2019-03-13T17:55:49.138Z,9.70
2019-03-13T17:58:18.852Z,9.70
2019-03-13T18:00:51.048Z,9.70
2019-03-13T18:03:21.705Z,9.70
2019-03-13T18:05:51.541Z,9.70
2019-03-13T18:08:21.404Z,9.70
2019-03-13T18:10:51.267Z,9.70
2019-03-13T18:13:22.810Z,9.70
2019-03-13T18:15:55.581Z,9.70
2019-03-13T18:18:25.301Z,9.70
2019-03-13T18:20:55.073Z,9.80
2019-03-13T18:23:24.772Z,9.80
2019-03-13T18:25:54.780Z,9.80
2019-03-13T18:28:24.636Z,9.80
2019-03-13T18:30:54.324Z,9.80
2019-03-13T18:33:24.198Z,9.80
2019-03-13T18:35:53.932Z,9.80
2019-03-13T18:38:23.728Z,9.80
2019-03-13T18:40:53.506Z,9.90
2019-03-13T18:43:23.374Z,9.90
2019-03-13T18:45:53.088Z,9.90
2019-03-13T18:48:22.782Z,9.80
2019-03-13T18:50:52.597Z,9.90
2019-03-13T18:53:22.380Z,9.90
2019-03-13T18:55:52.140Z,9.80
2019-03-13T18:58:21.934Z,9.90
2019-03-13T19:00:51.804Z,9.90
2019-03-13T19:03:21.515Z,9.90
2019-03-13T19:05:54.456Z,9.90
2019-03-13T19:08:22.879Z,9.90
2019-03-13T19:10:52.641Z,9.90
2019-03-13T19:13:23.324Z,9.80
2019-03-13T19:15:53.108Z,9.80
2019-03-13T19:18:23.006Z,9.80
2019-03-13T19:20:54.025Z,9.80
2019-03-13T19:23:23.980Z,9.70
2019-03-13T19:25:53.652Z,9.70
2019-03-13T19:28:23.520Z,9.70
2019-03-13T19:30:53.300Z,9.70
2019-03-13T19:33:24.086Z,9.60
2019-03-13T19:35:55.073Z,9.60
2019-03-13T19:38:26.259Z,9.60
2019-03-13T19:40:56.809Z,9.60
2019-03-13T19:43:26.580Z,9.60
2019-03-13T19:45:56.273Z,9.60
2019-03-13T19:48:26.108Z,9.50
2019-03-13T19:50:56.724Z,9.50
2019-03-13T19:53:26.702Z,9.50
2019-03-13T19:55:56.570Z,9.50
2019-03-13T19:58:26.437Z,9.50
2019-03-13T20:00:56.242Z,9.50
2019-03-13T20:03:26.016Z,9.50
2019-03-13T20:05:55.899Z,9.50
2019-03-13T20:08:25.983Z,9.40
2019-03-13T20:10:58.082Z,9.40
2019-03-13T20:13:28.376Z,9.40
2019-03-13T20:15:58.558Z,9.40
2019-03-13T20:18:28.726Z,9.40
2019-03-13T20:20:58.491Z,9.40
2019-03-13T20:23:28.244Z,9.40
2019-03-13T20:25:58.435Z,9.40
2019-03-13T20:28:28.459Z,9.40
2019-03-13T20:30:58.196Z,9.40
2019-03-13T20:33:28.155Z,9.30
2019-03-13T20:35:58.017Z,9.40
2019-03-13T20:38:27.820Z,9.40
2019-03-13T20:40:57.636Z,9.30
2019-03-13T20:43:27.371Z,9.30
2019-03-13T20:45:57.200Z,9.30
2019-03-13T20:48:26.880Z,9.30
2019-03-13T20:50:56.652Z,9.30
2019-03-13T20:53:26.322Z,9.30
2019-03-13T20:55:58.676Z,9.30
2019-03-13T20:58:29.532Z,9.30
2019-03-13T21:00:59.469Z,9.30
2019-03-13T21:03:29.392Z,9.30
2019-03-13T21:06:00.746Z,9.30
2019-03-13T21:08:31.097Z,9.40
2019-03-13T21:11:01.871Z,9.40
2019-03-13T21:13:31.705Z,9.40
2019-03-13T21:16:01.397Z,9.40
2019-03-13T21:18:31.351Z,9.40
2019-03-13T21:21:01.064Z,9.40
2019-03-13T21:23:31.829Z,9.40
2019-03-13T21:26:01.667Z,9.40
2019-03-13T21:28:31.528Z,9.50
2019-03-13T21:31:03.880Z,9.50
2019-03-13T21:33:35.879Z,9.50
2019-03-13T21:36:05.652Z,9.50
2019-03-13T21:38:35.496Z,9.50
2019-03-13T21:41:05.201Z,9.50
2019-03-13T21:43:36.025Z,9.50
2019-03-13T21:46:06.926Z,9.50
2019-03-13T21:48:36.836Z,9.50
2019-03-13T21:51:06.705Z,9.50
2019-03-13T21:53:36.400Z,9.50
2019-03-13T21:56:06.274Z,9.50
2019-03-13T21:58:35.972Z,9.50
2019-03-13T22:01:18.611Z,9.50
2019-03-13T22:03:37.276Z,9.50
2019-03-13T22:06:07.053Z,9.50
2019-03-13T22:08:36.846Z,9.50
2019-03-13T22:11:06.920Z,9.50
2019-03-13T22:13:36.618Z,9.50
2019-03-13T22:16:06.408Z,9.50
2019-03-13T22:18:39.933Z,9.50
2019-03-13T22:21:09.654Z,9.50
2019-03-13T22:23:39.412Z,9.50
2019-03-13T22:26:09.156Z,9.50
2019-03-13T22:28:38.851Z,9.50
2019-03-13T22:31:08.548Z,9.50
2019-03-13T22:33:38.254Z,9.50
2019-03-13T22:36:08.001Z,9.50
2019-03-13T22:38:37.700Z,9.50
2019-03-13T22:41:07.388Z,9.40
2019-03-13T22:43:37.092Z,9.40
2019-03-13T22:46:06.928Z,9.40
2019-03-13T22:48:36.741Z,9.40
2019-03-13T22:51:06.516Z,9.40
2019-03-13T22:53:36.212Z,9.40
2019-03-13T22:56:05.977Z,9.30
2019-03-13T22:58:35.836Z,9.30
2019-03-13T23:01:13.183Z,9.30
2019-03-13T23:03:43.492Z,9.30
2019-03-13T23:06:13.328Z,9.30
2019-03-13T23:08:43.102Z,9.30
2019-03-13T23:11:12.783Z,9.30
2019-03-13T23:13:42.503Z,9.20
2019-03-13T23:16:12.185Z,9.20
2019-03-13T23:18:41.949Z,9.20
2019-03-13T23:21:11.660Z,9.20
2019-03-13T23:23:41.427Z,9.20
2019-03-13T23:26:11.117Z,9.10
2019-03-13T23:28:40.821Z,9.10
2019-03-13T23:31:10.567Z,9.10
2019-03-13T23:33:40.358Z,9.10
2019-03-13T23:36:10.105Z,9.10
2019-03-13T23:38:39.991Z,9.10
2019-03-13T23:41:12.316Z,9.00
2019-03-13T23:43:42.009Z,9.00
2019-03-13T23:46:11.696Z,9.00
2019-03-13T23:48:41.407Z,9.00
2019-03-13T23:51:11.082Z,8.90
2019-03-13T23:53:40.857Z,8.90
2019-03-13T23:56:10.547Z,8.90
2019-03-13T23:58:40.243Z,8.90
